createdAt,value
2018-06-21T00:00:27.570Z,5.33
2018-06-21T00:02:56.556Z,9.00
2018-06-21T00:05:26.372Z,6.43
2018-06-21T00:07:55.568Z,8.50
2018-06-21T00:10:23.860Z,6.13
2018-06-21T00:12:54.692Z,8.27
2018-06-21T00:15:22.821Z,5.13
2018-06-21T00:17:51.552Z,5.50
2018-06-21T00:20:21.252Z,7.23
2018-06-21T00:22:50.199Z,10.33
2018-06-21T00:25:18.423Z,5.63
2018-06-21T00:27:46.827Z,6.93
2018-06-21T00:30:16.193Z,7.10
2018-06-21T00:32:44.625Z,5.73
2018-06-21T00:35:13.571Z,7.27
2018-06-21T00:37:43.486Z,8.27
2018-06-21T00:40:12.505Z,5.90
2018-06-21T00:42:40.635Z,5.43
2018-06-21T00:45:10.918Z,6.90
2018-06-21T00:47:39.864Z,7.97
2018-06-21T00:50:09.794Z,7.97
2018-06-21T00:52:37.947Z,7.53
2018-06-21T00:55:07.344Z,7.53
2018-06-21T00:57:36.068Z,7.00
2018-06-21T01:00:05.869Z,7.37
2018-06-21T01:02:34.428Z,8.20
2018-06-21T01:05:02.586Z,8.63
2018-06-21T01:07:30.884Z,8.43
2018-06-21T01:09:59.144Z,7.17
2018-06-21T01:12:27.436Z,7.63
2018-06-21T01:14:55.905Z,13.27
2018-06-21T01:17:25.229Z,8.57
2018-06-21T01:19:53.563Z,7.77
2018-06-21T01:22:21.717Z,9.77
2018-06-21T01:24:49.811Z,9.37
2018-06-21T01:27:18.255Z,8.80
2018-06-21T01:29:46.567Z,9.77
2018-06-21T01:32:15.628Z,8.80
2018-06-21T01:34:44.661Z,6.93
2018-06-21T01:37:12.934Z,8.60
2018-06-21T01:39:41.103Z,8.43
2018-06-21T01:42:09.467Z,8.23
2018-06-21T01:44:39.103Z,7.63
2018-06-21T01:47:07.147Z,7.10
2018-06-21T01:49:35.938Z,12.10
2018-06-21T01:52:04.631Z,8.70
2018-06-21T01:54:33.043Z,8.70
2018-06-21T01:57:01.138Z,7.37
2018-06-21T01:59:29.952Z,7.43
2018-06-21T02:01:58.350Z,11.20
2018-06-21T02:04:26.368Z,9.80
2018-06-21T02:06:54.618Z,8.93
2018-06-21T02:09:22.782Z,7.87
2018-06-21T02:11:50.939Z,9.60
2018-06-21T02:14:20.107Z,7.20
2018-06-21T02:16:47.987Z,8.47
2018-06-21T02:19:16.020Z,12.10
2018-06-21T02:21:44.442Z,8.83
2018-06-21T02:24:15.994Z,10.73
2018-06-21T02:26:44.220Z,9.70
2018-06-21T02:29:12.984Z,11.30
2018-06-21T02:31:41.003Z,8.87
2018-06-21T02:34:10.173Z,8.30
2018-06-21T02:36:38.192Z,9.60
2018-06-21T02:39:07.911Z,9.20
2018-06-21T02:41:36.986Z,11.10
2018-06-21T02:44:05.117Z,8.37
2018-06-21T02:46:33.371Z,9.50
2018-06-21T02:49:01.459Z,8.27
2018-06-21T02:51:30.843Z,8.10
2018-06-21T02:54:00.345Z,7.03
2018-06-21T02:56:29.523Z,9.77
2018-06-21T02:58:58.709Z,8.43
2018-06-21T03:01:27.517Z,7.53
2018-06-21T03:03:56.488Z,7.30
2018-06-21T03:06:24.559Z,9.47
2018-06-21T03:08:53.687Z,9.70
2018-06-21T03:11:24.823Z,10.13
2018-06-21T03:13:53.615Z,8.50
2018-06-21T03:16:21.687Z,8.20
2018-06-21T03:18:49.790Z,9.13
2018-06-21T03:21:19.465Z,8.80
2018-06-21T03:23:47.849Z,9.87
2018-06-21T03:26:17.075Z,9.70
2018-06-21T03:28:45.643Z,10.63
2018-06-21T03:31:13.731Z,13.77
2018-06-21T03:33:42.202Z,10.80
2018-06-21T03:36:10.794Z,10.13
2018-06-21T03:38:39.889Z,8.73
2018-06-21T03:41:08.126Z,9.83
2018-06-21T03:43:36.643Z,11.00
2018-06-21T03:46:04.703Z,11.23
2018-06-21T03:48:33.195Z,12.57
2018-06-21T03:51:01.111Z,8.03
2018-06-21T03:53:29.494Z,12.57
2018-06-21T03:55:57.764Z,12.80
2018-06-21T03:58:26.123Z,11.97
2018-06-21T04:00:55.740Z,11.33
2018-06-21T04:03:25.578Z,13.13
2018-06-21T04:05:53.754Z,9.60
2018-06-21T04:08:23.936Z,10.57
2018-06-21T04:10:52.175Z,11.80
2018-06-21T04:13:21.040Z,9.53
2018-06-21T04:15:49.518Z,12.63
2018-06-21T04:18:39.302Z,10.20
2018-06-21T04:21:08.527Z,11.10
2018-06-21T04:23:36.849Z,13.00
2018-06-21T04:26:06.015Z,12.23
2018-06-21T04:28:34.354Z,10.20
2018-06-21T04:31:03.367Z,10.37
2018-06-21T04:33:32.537Z,11.97
2018-06-21T04:36:01.643Z,11.30
2018-06-21T04:38:29.739Z,9.00
2018-06-21T04:40:57.750Z,10.17
2018-06-21T04:43:25.847Z,9.70
2018-06-21T04:45:54.787Z,9.03
2018-06-21T04:48:24.239Z,10.17
2018-06-21T04:50:53.951Z,12.37
2018-06-21T04:53:22.072Z,9.13
2018-06-21T04:55:50.130Z,10.60
2018-06-21T04:58:18.679Z,9.47
2018-06-21T05:00:46.734Z,10.47
2018-06-21T05:03:15.944Z,11.97
2018-06-21T05:05:45.650Z,11.70
2018-06-21T05:08:14.163Z,9.87
2018-06-21T05:10:42.414Z,9.90
2018-06-21T05:13:10.438Z,13.50
2018-06-21T05:15:41.647Z,11.10
2018-06-21T05:18:12.304Z,9.23
2018-06-21T05:20:48.888Z,12.30
2018-06-21T05:23:18.544Z,11.27
2018-06-21T05:25:46.781Z,9.33
2018-06-21T05:28:14.874Z,11.57
2018-06-21T05:30:44.907Z,12.20
2018-06-21T05:33:13.367Z,9.67
2018-06-21T05:35:41.362Z,9.20
2018-06-21T05:38:09.369Z,10.03
2018-06-21T05:40:37.457Z,12.87
2018-06-21T05:43:06.368Z,11.40
2018-06-21T05:45:34.829Z,11.23
2018-06-21T05:48:03.659Z,11.17
2018-06-21T05:50:32.883Z,9.93
2018-06-21T05:53:01.942Z,11.80
2018-06-21T05:55:31.006Z,9.93
2018-06-21T05:58:00.478Z,10.10
2018-06-21T06:00:31.343Z,10.03
2018-06-21T06:02:59.381Z,11.80
2018-06-21T06:05:29.444Z,9.17
2018-06-21T06:07:57.863Z,11.27
2018-06-21T06:10:26.732Z,12.60
2018-06-21T06:12:56.673Z,11.47
2018-06-21T06:15:24.801Z,10.10
2018-06-21T06:17:52.822Z,11.07
2018-06-21T06:20:21.318Z,12.37
2018-06-21T06:22:53.336Z,12.83
2018-06-21T06:25:21.573Z,7.43
2018-06-21T06:27:50.443Z,12.00
2018-06-21T06:30:18.683Z,8.33
2018-06-21T06:32:46.740Z,8.27
2018-06-21T06:35:15.922Z,8.20
2018-06-21T06:37:43.931Z,9.53
2018-06-21T06:40:12.324Z,8.43
2018-06-21T06:42:41.579Z,10.30
2018-06-21T06:45:11.610Z,7.03
2018-06-21T06:47:39.629Z,8.30
2018-06-21T06:50:07.878Z,6.60
2018-06-21T06:52:38.258Z,5.43
2018-06-21T06:55:07.471Z,8.57
2018-06-21T06:57:35.469Z,8.67
2018-06-21T07:00:04.601Z,9.10
2018-06-21T07:02:33.438Z,7.97
2018-06-21T07:05:01.971Z,6.73
2018-06-21T07:07:30.061Z,8.53
2018-06-21T07:09:58.802Z,8.47
2018-06-21T07:12:26.812Z,8.97
2018-06-21T07:14:56.250Z,10.30
2018-06-21T07:17:24.667Z,9.13
2018-06-21T07:19:54.414Z,9.60
2018-06-21T07:22:22.514Z,8.63
2018-06-21T07:26:57.611Z,9.17
2018-06-21T07:29:25.731Z,11.00
2018-06-21T07:31:54.061Z,7.83
2018-06-21T07:34:23.178Z,9.53
2018-06-21T07:36:51.228Z,6.03
2018-06-21T07:39:21.574Z,8.87
2018-06-21T07:41:51.191Z,7.67
2018-06-21T07:44:20.822Z,8.03
2018-06-21T07:46:50.253Z,8.17
2018-06-21T07:49:19.346Z,6.50
2018-06-21T07:51:47.371Z,6.00
2018-06-21T07:54:18.143Z,6.83
2018-06-21T07:56:47.806Z,6.97
2018-06-21T07:59:17.159Z,6.53
2018-06-21T08:01:45.294Z,5.47
2018-06-21T08:04:13.489Z,6.77
2018-06-21T08:06:41.742Z,7.97
2018-06-21T08:09:13.624Z,7.97
2018-06-21T08:11:43.285Z,4.40
2018-06-21T08:14:11.437Z,5.23
2018-06-21T08:16:44.583Z,4.40
2018-06-21T08:19:12.594Z,4.37
2018-06-21T08:21:41.091Z,4.57
2018-06-21T08:24:09.601Z,7.57
2018-06-21T08:26:39.808Z,5.50
2018-06-21T08:29:08.565Z,4.33
2018-06-21T08:31:38.777Z,5.27
2018-06-21T08:34:06.774Z,5.40
2018-06-21T08:36:35.304Z,6.90
2018-06-21T08:39:04.413Z,5.80
2018-06-21T08:41:33.772Z,6.07
2018-06-21T08:44:01.998Z,5.70
2018-06-21T08:46:31.938Z,7.50
2018-06-21T08:49:01.329Z,6.00
2018-06-21T08:51:30.030Z,5.60
2018-06-21T08:53:59.093Z,4.63
2018-06-21T08:56:27.331Z,6.60
2018-06-21T08:58:55.638Z,3.83
2018-06-21T09:01:23.792Z,7.13
2018-06-21T09:03:56.246Z,4.90
2018-06-21T09:06:24.518Z,4.80
2018-06-21T09:08:56.367Z,4.73
2018-06-21T09:11:24.546Z,2.90
2018-06-21T09:13:52.518Z,6.70
2018-06-21T09:16:23.558Z,4.97
2018-06-21T09:18:51.938Z,5.33
2018-06-21T09:21:20.726Z,3.30
2018-06-21T09:23:48.757Z,6.23
2018-06-21T09:26:16.890Z,5.93
2018-06-21T09:28:46.765Z,2.90
2018-06-21T09:31:15.939Z,2.70
2018-06-21T09:33:45.085Z,3.23
2018-06-21T09:36:13.171Z,5.30
2018-06-21T09:38:46.866Z,4.53
2018-06-21T09:41:20.534Z,4.00
2018-06-21T09:44:03.826Z,5.47
2018-06-21T09:46:33.876Z,5.17
2018-06-21T09:48:57.712Z,3.53
2018-06-21T09:51:26.353Z,5.03
2018-06-21T09:53:54.983Z,3.30
2018-06-21T09:56:25.125Z,5.03
2018-06-21T09:58:55.292Z,5.00
2018-06-21T10:01:27.105Z,5.73
2018-06-21T10:03:55.145Z,3.43
2018-06-21T10:06:25.137Z,4.80
2018-06-21T10:08:53.222Z,5.20
2018-06-21T10:11:21.232Z,5.67
2018-06-21T10:13:49.610Z,5.97
2018-06-21T10:16:17.586Z,4.87
2018-06-21T10:18:46.386Z,6.90
2018-06-21T10:21:16.190Z,5.53
2018-06-21T10:23:44.325Z,7.33
2018-06-21T10:26:12.635Z,5.77
2018-06-21T10:28:40.672Z,4.17
2018-06-21T10:31:09.226Z,5.57
2018-06-21T10:33:38.660Z,5.13
2018-06-21T10:36:07.073Z,5.50
2018-06-21T10:38:35.349Z,4.13
2018-06-21T10:41:04.232Z,9.93
2018-06-21T10:43:33.146Z,2.67
2018-06-21T10:46:01.170Z,6.07
2018-06-21T10:48:29.154Z,3.13
2018-06-21T10:50:57.254Z,3.80
2018-06-21T10:53:25.913Z,3.23
2018-06-21T10:55:54.482Z,3.10
2018-06-21T10:58:25.103Z,4.53
2018-06-21T11:00:53.251Z,4.37
2018-06-21T11:03:21.961Z,5.73
2018-06-21T11:05:50.056Z,3.23
2018-06-21T11:08:19.114Z,3.47
2018-06-21T11:10:48.351Z,4.80
2018-06-21T11:13:16.597Z,6.93
2018-06-21T11:15:48.977Z,5.20
2018-06-21T11:18:18.381Z,7.47
2018-06-21T11:20:47.189Z,6.13
2018-06-21T11:23:17.546Z,6.80
2018-06-21T11:25:46.008Z,4.80
2018-06-21T11:28:14.852Z,5.77
2018-06-21T11:30:43.231Z,6.73
2018-06-21T11:33:14.710Z,5.57
2018-06-21T11:35:42.998Z,10.27
2018-06-21T11:38:11.873Z,7.17
2018-06-21T11:40:41.257Z,6.27
2018-06-21T11:43:09.714Z,4.93
2018-06-21T11:45:38.418Z,7.60
2018-06-21T11:48:07.790Z,6.43
2018-06-21T11:50:38.407Z,5.67
2018-06-21T11:53:07.594Z,6.43
2018-06-21T11:55:41.728Z,4.60
2018-06-21T11:58:10.108Z,4.73
2018-06-21T12:00:39.691Z,5.70
2018-06-21T12:03:08.531Z,5.60
2018-06-21T12:05:38.611Z,5.60
2018-06-21T12:08:15.337Z,4.57
2018-06-21T12:10:43.854Z,4.20
2018-06-21T12:13:13.767Z,3.70
2018-06-21T12:15:42.242Z,4.67
2018-06-21T12:18:11.355Z,6.47
2018-06-21T12:20:40.867Z,4.63
2018-06-21T12:23:08.979Z,4.90
2018-06-21T12:25:37.216Z,4.93
2018-06-21T12:28:05.444Z,4.30
2018-06-21T12:30:34.827Z,7.83
2018-06-21T12:33:03.328Z,5.07
2018-06-21T12:35:37.953Z,3.87
2018-06-21T12:38:06.550Z,5.60
2018-06-21T12:40:47.757Z,6.00
2018-06-21T12:43:21.634Z,7.97
2018-06-21T12:45:59.454Z,3.90
2018-06-21T12:48:27.935Z,3.00
2018-06-21T12:50:56.362Z,4.70
2018-06-21T12:53:25.379Z,3.23
2018-06-21T12:55:53.637Z,3.60
2018-06-21T12:58:21.712Z,3.83
2018-06-21T13:00:51.250Z,6.83
2018-06-21T13:03:22.770Z,2.30
2018-06-21T13:05:51.953Z,2.00
2018-06-21T13:08:32.815Z,2.73
2018-06-21T13:13:14.730Z,3.47
2018-06-21T13:15:42.701Z,2.47
2018-06-21T13:18:10.982Z,5.57
2018-06-21T13:20:39.927Z,4.07
2018-06-21T13:23:07.984Z,4.47
2018-06-21T13:25:36.734Z,9.10
2018-06-21T13:28:06.764Z,3.93
2018-06-21T13:30:34.850Z,3.37
2018-06-21T13:33:07.346Z,5.13
2018-06-21T13:35:38.242Z,4.17
2018-06-21T13:38:06.358Z,3.07
2018-06-21T13:40:34.763Z,3.43
2018-06-21T13:43:03.017Z,3.13
2018-06-21T13:45:31.286Z,7.00
2018-06-21T13:47:59.824Z,3.30
2018-06-21T13:50:28.472Z,10.70
2018-06-21T13:52:56.466Z,6.80
2018-06-21T13:55:24.703Z,2.00
2018-06-21T13:57:55.047Z,2.87
2018-06-21T14:00:23.353Z,3.43
2018-06-21T14:02:52.774Z,4.77
2018-06-21T14:05:21.685Z,5.13
2018-06-21T14:07:53.260Z,3.63
2018-06-21T14:10:22.078Z,2.73
2018-06-21T14:12:54.122Z,3.40
2018-06-21T14:15:28.910Z,2.87
2018-06-21T14:18:03.950Z,4.17
2018-06-21T14:20:32.338Z,2.67
2018-06-21T14:23:01.322Z,3.40
2018-06-21T14:25:29.578Z,3.80
2018-06-21T14:28:06.007Z,2.77
2018-06-21T14:30:35.012Z,2.70
2018-06-21T14:33:03.909Z,2.30
2018-06-21T14:35:32.778Z,3.63
2018-06-21T14:38:02.522Z,3.33
2018-06-21T14:40:30.883Z,7.03
2018-06-21T14:42:59.166Z,3.43
2018-06-21T14:45:28.356Z,3.03
2018-06-21T14:47:59.100Z,2.50
2018-06-21T14:50:27.367Z,3.20
2018-06-21T14:52:55.676Z,4.83
2018-06-21T14:55:25.608Z,2.07
2018-06-21T14:57:54.042Z,4.83
2018-06-21T15:00:23.294Z,4.10
2018-06-21T15:02:54.852Z,3.87
2018-06-21T15:05:24.834Z,4.17
2018-06-21T15:07:53.934Z,2.40
2018-06-21T15:10:22.042Z,4.47
2018-06-21T15:12:51.543Z,12.37
2018-06-21T15:15:21.116Z,2.10
2018-06-21T15:17:49.595Z,5.67
2018-06-21T15:20:17.883Z,4.07
2018-06-21T15:22:46.234Z,3.60
2018-06-21T15:25:14.434Z,4.17
2018-06-21T15:27:43.922Z,3.93
2018-06-21T15:30:13.398Z,4.50
2018-06-21T15:32:44.075Z,4.90
2018-06-21T15:35:13.306Z,5.13
2018-06-21T15:37:43.121Z,6.20
2018-06-21T15:40:12.056Z,4.97
2018-06-21T15:42:40.329Z,1.60
2018-06-21T15:45:12.342Z,4.13
2018-06-21T15:47:41.175Z,3.53
2018-06-21T15:50:12.166Z,4.17
2018-06-21T15:52:41.317Z,4.03
2018-06-21T15:55:11.770Z,5.37
2018-06-21T15:57:40.078Z,4.33
2018-06-21T16:00:10.735Z,4.10
2018-06-21T16:02:41.149Z,6.90
2018-06-21T16:05:09.373Z,3.90
2018-06-21T16:07:37.313Z,6.97
2018-06-21T16:10:07.923Z,5.23
2018-06-21T16:12:37.270Z,4.50
2018-06-21T16:15:05.187Z,2.23
2018-06-21T16:17:34.162Z,1.97
2018-06-21T16:20:05.027Z,4.13
2018-06-21T16:22:33.082Z,6.13
2018-06-21T16:25:01.144Z,4.23
2018-06-21T16:27:30.023Z,6.07
2018-06-21T16:30:05.081Z,4.53
2018-06-21T16:32:33.663Z,3.63
2018-06-21T16:35:04.360Z,3.57
2018-06-21T16:37:33.049Z,4.20
2018-06-21T16:40:02.324Z,4.30
2018-06-21T16:42:32.446Z,2.87
2018-06-21T16:45:00.686Z,7.17
2018-06-21T16:47:28.647Z,4.57
2018-06-21T16:49:57.718Z,5.93
2018-06-21T16:52:28.986Z,6.07
2018-06-21T16:54:59.662Z,2.80
2018-06-21T16:57:29.573Z,6.47
2018-06-21T16:59:59.322Z,7.43
2018-06-21T17:02:28.522Z,5.00
2018-06-21T17:04:56.593Z,3.43
2018-06-21T17:07:24.607Z,2.87
2018-06-21T17:09:53.615Z,2.77
2018-06-21T17:12:21.676Z,2.57
2018-06-21T17:14:52.814Z,5.13
2018-06-21T17:17:22.269Z,4.47
2018-06-21T17:19:50.791Z,4.17
2018-06-21T17:22:20.771Z,4.33
2018-06-21T17:24:49.416Z,3.20
2018-06-21T17:27:19.355Z,6.60
2018-06-21T17:29:47.378Z,5.03
2018-06-21T17:32:15.674Z,10.20
2018-06-21T17:34:44.602Z,3.30
2018-06-21T17:37:13.513Z,7.50
2018-06-21T17:39:42.482Z,8.10
2018-06-21T17:42:10.918Z,4.33
2018-06-21T17:44:40.058Z,2.93
2018-06-21T17:47:10.268Z,5.97
2018-06-21T17:49:38.531Z,6.13
2018-06-21T17:52:06.794Z,6.60
2018-06-21T17:54:37.352Z,3.80
2018-06-21T17:57:05.574Z,6.57
2018-06-21T17:59:33.603Z,10.00
2018-06-21T18:02:01.579Z,4.23
2018-06-21T18:04:31.262Z,4.73
2018-06-21T18:06:59.089Z,5.00
2018-06-21T18:09:27.075Z,7.17
2018-06-21T18:11:55.408Z,3.83
2018-06-21T18:14:23.604Z,5.33
2018-06-21T18:16:53.132Z,3.27
2018-06-21T18:19:26.796Z,5.17
2018-06-21T18:21:55.044Z,4.07
2018-06-21T18:24:23.652Z,7.37
2018-06-21T18:26:52.246Z,5.27
2018-06-21T18:29:22.541Z,6.47
2018-06-21T18:31:54.219Z,5.73
2018-06-21T18:34:29.194Z,5.37
2018-06-21T18:36:58.509Z,7.77
2018-06-21T18:39:29.785Z,4.57
2018-06-21T18:41:58.687Z,4.70
2018-06-21T18:44:29.386Z,5.40
2018-06-21T18:46:58.493Z,3.27
2018-06-21T18:49:28.587Z,4.97
2018-06-21T18:51:56.946Z,8.73
2018-06-21T18:54:27.184Z,3.70
2018-06-21T18:56:55.808Z,3.67
2018-06-21T18:59:24.805Z,4.20
2018-06-21T19:01:54.770Z,8.43
2018-06-21T19:04:25.270Z,7.83
2018-06-21T19:06:59.570Z,3.60
2018-06-21T19:09:34.343Z,1.87
2018-06-21T19:12:04.211Z,5.10
2018-06-21T19:14:33.342Z,10.90
2018-06-21T19:17:01.559Z,2.20
2018-06-21T19:19:31.814Z,3.77
2018-06-21T19:22:01.325Z,3.27
2018-06-21T19:24:31.223Z,4.87
2018-06-21T19:27:00.339Z,5.27
2018-06-21T19:29:31.857Z,5.67
2018-06-21T19:32:01.080Z,10.70
2018-06-21T19:34:29.794Z,6.03
2018-06-21T19:36:58.741Z,5.63
2018-06-21T19:39:29.330Z,5.40
2018-06-21T19:41:58.206Z,5.43
2018-06-21T19:44:28.872Z,4.53
2018-06-21T19:47:00.207Z,3.57
2018-06-21T19:49:29.750Z,4.67
2018-06-21T19:51:59.358Z,3.40
2018-06-21T19:54:28.778Z,3.10
2018-06-21T19:56:57.570Z,4.20
2018-06-21T19:59:29.085Z,5.80
2018-06-21T20:02:00.592Z,4.03
2018-06-21T20:04:29.366Z,5.00
2018-06-21T20:06:58.610Z,2.37
2018-06-21T20:09:30.107Z,3.13
2018-06-21T20:11:59.873Z,3.40
2018-06-21T20:14:30.517Z,5.73
2018-06-21T20:17:02.377Z,2.13
2018-06-21T20:19:39.097Z,6.37
2018-06-21T20:24:49.187Z,5.17
2018-06-21T20:27:17.667Z,4.10
2018-06-21T20:30:18.122Z,3.47
2018-06-21T20:32:48.090Z,5.33
2018-06-21T20:35:18.216Z,5.37
2018-06-21T20:37:46.580Z,3.53
2018-06-21T20:40:17.429Z,4.73
2018-06-21T20:42:46.676Z,5.37
2018-06-21T20:45:15.871Z,5.63
2018-06-21T20:47:46.601Z,8.10
2018-06-21T20:50:22.573Z,3.93
2018-06-21T20:52:53.241Z,2.17
2018-06-21T20:55:24.650Z,4.83
2018-06-21T20:57:59.739Z,4.53
2018-06-21T21:00:31.374Z,6.20
2018-06-21T21:03:01.674Z,4.17
2018-06-21T21:05:32.655Z,3.53
2018-06-21T21:08:02.017Z,2.63
2018-06-21T21:10:34.670Z,8.70
2018-06-21T21:13:05.432Z,6.73
2018-06-21T21:15:41.336Z,2.37
2018-06-21T21:20:45.678Z,3.17
2018-06-21T21:23:19.302Z,5.33
2018-06-21T21:25:57.488Z,4.77
2018-06-21T21:28:29.300Z,3.90
2018-06-21T21:30:59.227Z,3.80
2018-06-21T21:33:29.045Z,2.73
2018-06-21T21:35:59.287Z,2.93
2018-06-21T21:38:29.654Z,4.20
2018-06-21T21:40:59.834Z,3.87
2018-06-21T21:43:29.889Z,3.67
2018-06-21T21:45:59.101Z,2.20
2018-06-21T21:48:28.166Z,2.00
2018-06-21T21:50:58.366Z,2.23
2018-06-21T21:53:27.101Z,2.70
2018-06-21T21:55:56.027Z,3.80
2018-06-21T21:58:25.719Z,3.53
2018-06-21T22:00:55.892Z,2.47
2018-06-21T22:03:24.526Z,5.20
2018-06-21T22:05:53.109Z,3.20
2018-06-21T22:08:21.943Z,3.43
2018-06-21T22:10:50.031Z,6.87
2018-06-21T22:13:19.239Z,3.43
2018-06-21T22:15:48.313Z,2.30
2018-06-21T22:18:17.733Z,3.93
2018-06-21T22:20:46.038Z,3.27
2018-06-21T22:23:14.759Z,4.30
2018-06-21T22:25:42.712Z,5.20
2018-06-21T22:28:14.332Z,2.63
2018-06-21T22:30:44.111Z,2.87
2018-06-21T22:33:12.062Z,2.53
2018-06-21T22:35:41.884Z,4.73
2018-06-21T22:38:13.059Z,4.50
2018-06-21T22:40:43.601Z,1.80
2018-06-21T22:43:13.837Z,2.30
2018-06-21T22:45:42.540Z,1.53
2018-06-21T22:48:11.624Z,4.67
2018-06-21T22:50:41.730Z,3.17
2018-06-21T22:53:11.296Z,3.13
2018-06-21T22:55:40.098Z,4.23
2018-06-21T22:58:09.649Z,2.67
2018-06-21T23:00:41.346Z,2.60
2018-06-21T23:03:11.378Z,3.90
2018-06-21T23:05:39.887Z,2.93
2018-06-21T23:08:10.799Z,5.80
2018-06-21T23:10:41.246Z,4.90
2018-06-21T23:13:10.699Z,5.10
2018-06-21T23:15:42.578Z,1.93
2018-06-21T23:18:13.103Z,4.30
2018-06-21T23:20:42.076Z,4.70
2018-06-21T23:23:10.512Z,5.50
2018-06-21T23:25:40.384Z,2.93
2018-06-21T23:28:09.366Z,5.00
2018-06-21T23:30:38.338Z,5.20
2018-06-21T23:33:08.034Z,3.07
2018-06-21T23:35:45.983Z,2.07
2018-06-21T23:38:15.987Z,2.97
2018-06-21T23:40:45.246Z,2.87
2018-06-21T23:43:15.745Z,5.67
2018-06-21T23:45:48.106Z,3.03
2018-06-21T23:48:18.135Z,5.47
2018-06-21T23:50:47.239Z,2.87
2018-06-21T23:53:16.147Z,4.57
2018-06-21T23:55:44.872Z,2.60
2018-06-21T23:58:18.913Z,3.27
